Pagrindinis puslapis
METAR-TAF:

METAR-TAF

Oro uostai :

Vavau, Tonga

platuma: 18-35-07S, ilguma: 173-57-42W, Aukštis: 72 m

Dabartinis oras

Ataskaita buvo paskelbta 4 valandos ir 14 minutes, ne 06:00 UTC
Vėjas 4 kt iš Pietų/Pietryčių
Temperatūra 23°C
Drėgmė 94%
Slėgis 1013 hPa
Matomumas 10 km arba daugiau
Išsisklaidę debesys ne aukštis 1700 ft, aukštai iškilę kamuoliniai debesys.

METAR: NFTV 220600Z 15004KT 9999 SCT017TCU 23/22 Q1013

Laikas: 23:14 (10:14 UTC)

Prognozė

Ataskaita buvo paskelbta 5 valandos ir 8 minutes, ne 05:06 UTC
Prognozė galioja nuo 22 metu 06 UTC su 23 metu 06 UTC
Vėjas 8 kt iš Pietų
Matomumas 10 km arba daugiau
Mažai debesys ne aukštis 1700 ft

TAF: NFTV 220506Z 2206/2306 18008KT 9999 FEW017

Orai ataskaitas ir orų prognozės (METAR, TAF).

turimą stotys yra geltonos ir raudonos taškus žemėlapyje.

Perkelti pele per norėdami pamatyti stoties vardą.

Tada spustelėkite, norėdami matyti oro stebėjimo ir prognozės.

Norėdami pakeisti žemėlapį: spustelėkite ant žalios mygtukų su juodo kryžiaus žemyn,; žalią mygtuką su brūkšneliu, jei norite nutolinti; arba žalių rodyklių gretimoms žemėlapius.


METAR-TAF: